createdAt,value
2022-11-28T00:01:30.441Z,102860.44
2022-11-28T00:03:58.545Z,102855.25
2022-11-28T00:06:26.964Z,102858.72
2022-11-28T00:08:55.937Z,102859.59
2022-11-28T00:11:23.764Z,102862.16
2022-11-28T00:13:51.585Z,102864.75
2022-11-28T00:16:23.646Z,102865.59
2022-11-28T00:18:52.641Z,102861.28
2022-11-28T00:21:21.225Z,102870.75
2022-11-28T00:23:50.020Z,102864.72
2022-11-28T00:26:20.595Z,102862.16
2022-11-28T00:28:48.789Z,102862.13
2022-11-28T00:31:17.918Z,102858.66
2022-11-28T00:33:47.559Z,102859.53
2022-11-28T00:36:15.444Z,102859.53
2022-11-28T00:38:43.917Z,102859.53
2022-11-28T00:41:16.192Z,102862.13
2022-11-28T00:43:45.831Z,102861.22
2022-11-28T00:46:15.443Z,102854.34
2022-11-28T00:48:43.490Z,102853.44
2022-11-28T00:51:14.681Z,102857.75
2022-11-28T00:53:44.337Z,102854.31
2022-11-28T00:56:14.933Z,102852.56
2022-11-28T00:58:43.577Z,102849.97
2022-11-28T01:01:13.308Z,102843.97
2022-11-28T01:03:41.260Z,102845.69
2022-11-28T01:06:11.034Z,102833.63
2022-11-28T01:08:40.326Z,102837.94
2022-11-28T01:11:12.584Z,102833.66
2022-11-28T01:13:40.680Z,102834.50
2022-11-28T01:16:09.235Z,102831.91
2022-11-28T01:18:37.333Z,102832.81
2022-11-28T01:21:05.797Z,102837.13
2022-11-28T01:23:34.202Z,102831.09
2022-11-28T01:26:04.650Z,102831.94
2022-11-28T01:28:32.498Z,102825.94
2022-11-28T01:31:05.617Z,102831.09
2022-11-28T01:33:33.547Z,102828.53
2022-11-28T01:36:01.639Z,102829.34
2022-11-28T01:38:29.895Z,102820.75
2022-11-28T01:40:58.141Z,102831.91
2022-11-28T01:43:27.526Z,102825.03
2022-11-28T01:45:56.223Z,102826.75
2022-11-28T01:48:27.560Z,102828.47
2022-11-28T01:50:59.578Z,102824.16
2022-11-28T01:53:30.176Z,102831.06
2022-11-28T01:56:01.918Z,102821.56
2022-11-28T01:58:34.256Z,102818.97
2022-11-28T02:01:02.444Z,102819.84
2022-11-28T02:03:35.055Z,102820.72
2022-11-28T02:06:03.952Z,102823.31
2022-11-28T02:08:34.461Z,102825.91
2022-11-28T02:11:20.521Z,102826.72
2022-11-28T02:13:59.492Z,102819.84
2022-11-28T02:16:50.205Z,102818.13
2022-11-28T02:20:02.300Z,102823.31
2022-11-28T02:22:38.809Z,102817.28
2022-11-28T02:25:24.520Z,102810.38
2022-11-28T02:28:33.454Z,102806.91
2022-11-28T02:31:16.774Z,102812.09
2022-11-28T02:33:50.077Z,102818.16
2022-11-28T02:36:25.369Z,102814.69
2022-11-28T02:39:05.616Z,102821.56
2022-11-28T02:41:37.758Z,102816.41
2022-11-28T02:44:13.241Z,102822.41
2022-11-28T02:46:50.941Z,102831.03
2022-11-28T02:49:24.608Z,102824.13
2022-11-28T02:51:57.217Z,102829.28
2022-11-28T02:54:27.403Z,102828.41
2022-11-28T02:56:55.599Z,102834.44
2022-11-28T02:59:48.085Z,102832.72
2022-11-28T03:02:19.273Z,102834.44
2022-11-28T03:04:56.493Z,102830.97
2022-11-28T03:07:47.615Z,102828.41
2022-11-28T03:10:23.765Z,102824.06
2022-11-28T03:13:02.795Z,102823.22
2022-11-28T03:15:39.238Z,102826.66
2022-11-28T03:18:15.413Z,102827.53
2022-11-28T03:20:48.761Z,102828.41
2022-11-28T03:23:20.753Z,102824.97
2022-11-28T03:25:59.260Z,102821.50
2022-11-28T03:28:32.516Z,102837.88
2022-11-28T03:31:04.816Z,102830.97
2022-11-28T03:33:35.948Z,102829.25
2022-11-28T03:36:09.794Z,102838.72
2022-11-28T03:38:41.520Z,102837.00
2022-11-28T03:41:15.630Z,102834.41
2022-11-28T03:43:51.201Z,102837.00
2022-11-28T03:46:23.703Z,102836.16
2022-11-28T03:48:55.849Z,102844.75
2022-11-28T03:51:31.093Z,102841.31
2022-11-28T03:54:05.209Z,102849.91
2022-11-28T03:56:41.105Z,102844.75
2022-11-28T03:59:12.994Z,102843.91
2022-11-28T04:01:51.622Z,102845.63
2022-11-28T04:04:27.321Z,102844.75
2022-11-28T04:06:59.484Z,102850.81
2022-11-28T04:09:42.197Z,102854.25
2022-11-28T04:12:20.228Z,102845.63
2022-11-28T04:14:52.994Z,102840.44
2022-11-28T04:17:30.705Z,102840.44
2022-11-28T04:20:05.388Z,102843.84
2022-11-28T04:22:38.722Z,102843.00
2022-11-28T04:25:10.889Z,102837.84
2022-11-28T04:27:45.241Z,102843.00
2022-11-28T04:30:14.066Z,102844.72
2022-11-28T04:32:47.769Z,102844.72
2022-11-28T04:35:21.437Z,102842.16
2022-11-28T04:37:52.409Z,102840.44
2022-11-28T04:40:23.338Z,102844.72
2022-11-28T04:42:54.844Z,102846.47
2022-11-28T04:45:28.072Z,102841.31
2022-11-28T04:47:56.328Z,102843.03
2022-11-28T04:50:29.841Z,102846.50
2022-11-28T04:53:05.118Z,102843.91
2022-11-28T04:55:39.401Z,102851.66
2022-11-28T04:58:14.324Z,102848.22
2022-11-28T05:00:43.110Z,102844.75
2022-11-28T05:03:11.481Z,102841.31
2022-11-28T05:05:48.552Z,102845.63
2022-11-28T05:08:19.172Z,102843.03
2022-11-28T05:10:47.382Z,102840.47
2022-11-28T05:13:15.550Z,102843.94
2022-11-28T05:15:43.404Z,102844.78
2022-11-28T05:18:11.310Z,102838.75
2022-11-28T05:20:39.805Z,102840.47
2022-11-28T05:23:07.741Z,102844.78
2022-11-28T05:25:38.819Z,102843.94
2022-11-28T05:28:06.667Z,102842.19
2022-11-28T05:30:34.545Z,102849.97
2022-11-28T05:33:02.820Z,102849.97
2022-11-28T05:35:30.805Z,102843.09
2022-11-28T05:37:58.637Z,102844.78
2022-11-28T05:40:26.429Z,102847.38
2022-11-28T05:42:55.609Z,102842.19
2022-11-28T05:45:23.442Z,102845.66
2022-11-28T05:47:51.301Z,102840.50
2022-11-28T05:50:19.223Z,102848.25
2022-11-28T05:52:47.022Z,102849.97
2022-11-28T05:55:14.952Z,102850.84
2022-11-28T05:57:42.756Z,102851.72
2022-11-28T06:00:14.585Z,102846.56
2022-11-28T06:02:42.435Z,102856.03
2022-11-28T06:05:34.751Z,102846.56
2022-11-28T06:07:58.234Z,102848.28
2022-11-28T06:10:26.174Z,102852.56
2022-11-28T06:12:53.991Z,102855.13
2022-11-28T06:15:23.193Z,102854.31
2022-11-28T06:17:51.024Z,102844.81
2022-11-28T06:20:18.869Z,102852.56
2022-11-28T06:22:47.842Z,102851.72
2022-11-28T06:25:15.920Z,102853.44
2022-11-28T06:27:43.730Z,102848.28
2022-11-28T06:30:11.970Z,102850.88
2022-11-28T06:32:41.165Z,102852.63
2022-11-28T06:35:09.599Z,102855.22
2022-11-28T06:37:37.492Z,102852.63
2022-11-28T06:40:07.603Z,102855.22
2022-11-28T06:42:35.971Z,102855.22
2022-11-28T06:45:04.081Z,102863.84
2022-11-28T06:47:32.110Z,102862.16
2022-11-28T06:50:01.306Z,102859.56
2022-11-28T06:52:29.329Z,102857.00
2022-11-28T06:54:57.206Z,102860.44
2022-11-28T06:57:25.821Z,102863.88
2022-11-28T06:59:53.738Z,102870.75
2022-11-28T07:02:22.925Z,102869.03
2022-11-28T07:04:50.746Z,102871.63
2022-11-28T07:07:19.993Z,102869.91
2022-11-28T07:09:47.905Z,102872.47
2022-11-28T07:12:15.845Z,102869.88
2022-11-28T07:14:46.077Z,102863.81
2022-11-28T07:17:13.685Z,102870.69
2022-11-28T07:19:41.863Z,102868.09
2022-11-28T07:22:11.378Z,102875.00
2022-11-28T07:24:40.609Z,102875.00
2022-11-28T07:27:08.420Z,102878.41
2022-11-28T07:29:37.041Z,102873.22
2022-11-28T07:32:06.374Z,102873.22
2022-11-28T07:34:34.769Z,102871.50
2022-11-28T07:37:02.713Z,102868.91
2022-11-28T07:39:30.846Z,102878.34
2022-11-28T07:42:00.009Z,102875.75
2022-11-28T07:44:27.877Z,102874.94
2022-11-28T07:46:55.745Z,102870.59
2022-11-28T07:49:23.608Z,102878.34
2022-11-28T07:51:51.463Z,102882.63
2022-11-28T07:54:19.474Z,102886.09
2022-11-28T07:59:37.137Z,102884.38
2022-11-28T08:02:05.028Z,102879.19
2022-11-28T08:04:32.912Z,102892.13
2022-11-28T08:07:00.756Z,102893.81
2022-11-28T08:09:28.646Z,102892.94
2022-11-28T08:11:56.615Z,102892.06
2022-11-28T08:14:24.686Z,102885.16
2022-11-28T08:16:54.086Z,102892.91
2022-11-28T08:19:24.564Z,102893.75
2022-11-28T08:21:52.821Z,102898.91
2022-11-28T08:24:20.642Z,102893.72
2022-11-28T08:26:48.464Z,102891.13
2022-11-28T08:29:16.273Z,102894.56
2022-11-28T08:31:44.082Z,102892.81
2022-11-28T08:34:13.281Z,102897.97
2022-11-28T08:36:43.340Z,102891.97
2022-11-28T08:39:27.826Z,102897.97
2022-11-28T08:41:57.781Z,102903.16
2022-11-28T08:44:26.483Z,102905.72
2022-11-28T08:46:54.944Z,102904.88
2022-11-28T08:49:24.179Z,102904.88
2022-11-28T08:51:52.006Z,102907.44
2022-11-28T08:54:20.885Z,102902.25
2022-11-28T08:56:48.712Z,102909.13
2022-11-28T08:59:16.516Z,102911.69
2022-11-28T09:01:44.450Z,102910.84
2022-11-28T09:04:12.358Z,102913.41
2022-11-28T09:06:41.845Z,102908.22
2022-11-28T09:09:10.098Z,102914.28
2022-11-28T09:11:38.680Z,102917.69
2022-11-28T09:14:06.977Z,102922.00
2022-11-28T09:16:34.957Z,102919.41
2022-11-28T09:19:02.821Z,102924.56
2022-11-28T09:21:30.794Z,102929.75
2022-11-28T09:23:59.984Z,102922.81
2022-11-28T09:26:27.916Z,102922.81
2022-11-28T09:28:56.004Z,102919.38
2022-11-28T09:31:23.961Z,102920.19
2022-11-28T09:33:52.372Z,102919.34
2022-11-28T09:36:22.528Z,102928.81
2022-11-28T09:38:51.455Z,102925.34
2022-11-28T09:41:41.199Z,102925.34
2022-11-28T09:44:15.730Z,102922.75
2022-11-28T09:46:45.703Z,102919.31
2022-11-28T09:49:24.501Z,102924.50
2022-11-28T09:51:57.009Z,102920.13
2022-11-28T09:54:33.529Z,102920.13
2022-11-28T09:57:04.919Z,102921.88
2022-11-28T09:59:33.036Z,102916.69
2022-11-28T10:02:16.496Z,102918.38
2022-11-28T10:04:51.730Z,102920.09
2022-11-28T10:07:26.997Z,102911.47
2022-11-28T10:10:03.519Z,102914.88
2022-11-28T10:12:44.590Z,102909.69
2022-11-28T10:15:26.149Z,102904.50
2022-11-28T10:18:06.433Z,102914.00
2022-11-28T10:20:35.628Z,102914.03
2022-11-28T10:23:07.618Z,102911.41
2022-11-28T10:25:39.921Z,102914.84
2022-11-28T10:28:17.716Z,102918.28
2022-11-28T10:30:50.587Z,102913.97
2022-11-28T10:33:23.651Z,102907.91
2022-11-28T10:35:55.939Z,102908.75
2022-11-28T10:38:27.494Z,102912.19
2022-11-28T10:41:01.977Z,102917.38
2022-11-28T10:43:44.123Z,102913.06
2022-11-28T10:46:32.941Z,102908.72
2022-11-28T10:49:10.417Z,102906.16
2022-11-28T10:51:50.048Z,102906.97
2022-11-28T10:54:31.126Z,102909.59
2022-11-28T10:57:08.014Z,102909.56
2022-11-28T10:59:52.048Z,102918.25
2022-11-28T11:02:22.916Z,102920.84
2022-11-28T11:04:50.798Z,102915.66
2022-11-28T11:07:29.459Z,102910.50
2022-11-28T11:10:01.362Z,102910.50
2022-11-28T11:12:32.969Z,102907.06
2022-11-28T11:15:17.210Z,102912.25
2022-11-28T11:17:45.083Z,102917.41
2022-11-28T11:20:31.953Z,102918.28
2022-11-28T11:23:01.665Z,102915.72
2022-11-28T11:25:32.490Z,102910.56
2022-11-28T11:28:02.734Z,102920.03
2022-11-28T11:30:33.171Z,102917.47
2022-11-28T11:33:02.853Z,102917.44
2022-11-28T11:35:34.830Z,102908.81
2022-11-28T11:38:18.273Z,102917.44
2022-11-28T11:40:46.289Z,102911.41
2022-11-28T11:43:28.898Z,102921.75
2022-11-28T11:46:10.932Z,102926.94
2022-11-28T11:48:40.580Z,102925.19
2022-11-28T11:51:21.222Z,102932.94
2022-11-28T11:53:49.105Z,102931.22
2022-11-28T11:56:17.106Z,102930.31
2022-11-28T11:58:53.116Z,102924.28
2022-11-28T12:01:22.824Z,102927.69
2022-11-28T12:03:56.186Z,102925.13
2022-11-28T12:06:28.635Z,102927.69
2022-11-28T12:09:06.734Z,102925.09
2022-11-28T12:11:42.411Z,102927.69
2022-11-28T12:14:27.705Z,102926.84
2022-11-28T12:17:32.538Z,102922.50
2022-11-28T12:20:20.117Z,102923.38
2022-11-28T12:22:57.513Z,102927.66
2022-11-28T12:25:34.767Z,102932.84
2022-11-28T12:28:12.746Z,102933.72
2022-11-28T12:30:54.176Z,102934.63
2022-11-28T12:33:36.100Z,102938.06
2022-11-28T12:36:12.092Z,102946.72
2022-11-28T12:39:01.061Z,102944.16
2022-11-28T12:42:01.097Z,102939.84
2022-11-28T12:44:40.977Z,102943.28
2022-11-28T12:47:17.453Z,102950.19
2022-11-28T12:49:58.011Z,102945.00
2022-11-28T12:52:37.099Z,102932.91
2022-11-28T12:55:22.408Z,102941.56
2022-11-28T12:58:00.445Z,102936.38
2022-11-28T13:00:30.721Z,102935.50
2022-11-28T13:03:09.291Z,102938.09
2022-11-28T13:05:51.091Z,102941.56
2022-11-28T13:08:48.474Z,102939.84
2022-11-28T13:11:31.924Z,102935.53
2022-11-28T13:14:05.406Z,102945.06
2022-11-28T13:16:43.784Z,102937.28
2022-11-28T13:19:22.650Z,102936.47
2022-11-28T13:22:01.725Z,102940.75
2022-11-28T13:24:35.167Z,102937.28
2022-11-28T13:27:10.520Z,102939.88
2022-11-28T13:29:44.845Z,102937.28
2022-11-28T13:32:21.994Z,102934.69
2022-11-28T13:34:50.520Z,102936.41
2022-11-28T13:40:19.885Z,102932.97
2022-11-28T13:43:09.333Z,102935.56
2022-11-28T13:45:39.814Z,102943.38
2022-11-28T13:51:34.004Z,102937.34
2022-11-28T13:54:20.304Z,102939.13
2022-11-28T13:57:06.085Z,102933.03
2022-11-28T13:59:35.234Z,102935.66
2022-11-28T14:02:06.458Z,102938.25
2022-11-28T14:04:35.033Z,102944.31
2022-11-28T14:07:05.362Z,102946.03
2022-11-28T14:09:47.621Z,102950.34
2022-11-28T14:12:22.073Z,102947.75
2022-11-28T14:15:16.659Z,102953.78
2022-11-28T14:18:00.634Z,102950.34
2022-11-28T14:20:37.619Z,102959.81
2022-11-28T14:23:20.515Z,102958.13
2022-11-28T14:25:51.076Z,102961.56
2022-11-28T14:28:26.242Z,102962.44
2022-11-28T14:31:04.396Z,102959.84
2022-11-28T14:33:37.985Z,102956.38
2022-11-28T14:36:25.397Z,102963.28
2022-11-28T14:39:09.452Z,102961.53
2022-11-28T14:42:58.023Z,102968.47
2022-11-28T14:45:47.421Z,102962.44
2022-11-28T14:48:28.538Z,102963.31
2022-11-28T14:51:01.774Z,102957.25
2022-11-28T14:53:46.835Z,102963.31
2022-11-28T14:56:32.416Z,102964.19
2022-11-28T14:59:03.518Z,102964.22
2022-11-28T15:01:50.661Z,102953.88
2022-11-28T15:04:40.440Z,102963.41
2022-11-28T15:07:23.380Z,102967.75
2022-11-28T15:10:07.249Z,102970.34
2022-11-28T15:12:49.990Z,102971.22
2022-11-28T15:15:19.196Z,102970.38
2022-11-28T15:17:52.445Z,102974.75
2022-11-28T15:20:27.793Z,102978.19
2022-11-28T15:22:55.634Z,102976.50
2022-11-28T15:25:25.026Z,102967.03
2022-11-28T15:27:53.288Z,102971.38
2022-11-28T15:30:23.859Z,102968.81
2022-11-28T15:32:55.766Z,102971.41
2022-11-28T15:35:23.878Z,102973.13
2022-11-28T15:37:54.494Z,102970.59
2022-11-28T15:40:26.469Z,102976.66
2022-11-28T15:42:54.493Z,102982.72
2022-11-28T15:45:26.668Z,102986.19
2022-11-28T15:47:57.530Z,102987.91
2022-11-28T15:50:27.255Z,102987.06
2022-11-28T15:52:56.813Z,102988.81
2022-11-28T15:55:25.554Z,102989.66
2022-11-28T15:57:53.386Z,102990.53
2022-11-28T16:00:21.984Z,102993.13
2022-11-28T16:02:50.164Z,102987.09
2022-11-28T16:05:22.347Z,102985.41
2022-11-28T16:07:52.190Z,102986.28
2022-11-28T16:10:25.069Z,102991.44
2022-11-28T16:12:58.406Z,102988.84
2022-11-28T16:15:27.738Z,102998.31
2022-11-28T16:17:56.358Z,102987.16
2022-11-28T16:20:28.311Z,102997.50
2022-11-28T16:23:02.549Z,102996.63
2022-11-28T16:25:31.253Z,102996.63
2022-11-28T16:27:59.508Z,102999.19
2022-11-28T16:30:37.485Z,102994.03
2022-11-28T16:33:35.507Z,102990.56
2022-11-28T16:36:12.961Z,102994.00
2022-11-28T16:38:41.176Z,102991.41
2022-11-28T16:41:17.298Z,102994.00
2022-11-28T16:43:50.033Z,102994.00
2022-11-28T16:46:21.531Z,102995.72
2022-11-28T16:48:50.737Z,102987.97
2022-11-28T16:51:33.187Z,102986.25
2022-11-28T16:54:01.949Z,102991.44
2022-11-28T16:56:44.840Z,102994.00
2022-11-28T16:59:14.531Z,103002.59
2022-11-28T17:01:44.061Z,102998.31
2022-11-28T17:04:21.280Z,102996.59
2022-11-28T17:06:51.251Z,102996.59
2022-11-28T17:09:19.628Z,103002.66
2022-11-28T17:11:52.896Z,103002.66
2022-11-28T17:14:20.709Z,102995.75
2022-11-28T17:16:48.610Z,102998.34
2022-11-28T17:19:16.595Z,103000.91
2022-11-28T17:21:46.652Z,103000.06
2022-11-28T17:24:21.101Z,103003.50
2022-11-28T17:26:49.054Z,103008.66
2022-11-28T17:29:17.448Z,103008.66
2022-11-28T17:31:47.004Z,103013.81
2022-11-28T17:34:17.638Z,103022.44
2022-11-28T17:36:45.857Z,103017.28
2022-11-28T17:39:14.178Z,103019.88
2022-11-28T17:41:44.012Z,103018.16
2022-11-28T17:44:17.571Z,103025.03
2022-11-28T17:46:45.459Z,103021.56
2022-11-28T17:49:13.478Z,103022.44
2022-11-28T17:51:41.445Z,103011.22
2022-11-28T17:54:09.536Z,103020.69
2022-11-28T17:56:37.464Z,103018.13
2022-11-28T17:59:06.653Z,103020.69
2022-11-28T18:01:34.514Z,103025.03
2022-11-28T18:04:04.413Z,103019.84
2022-11-28T18:06:32.905Z,103025.03
2022-11-28T18:09:10.160Z,103026.75
2022-11-28T18:11:40.057Z,103019.00
2022-11-28T18:14:09.238Z,103015.53
2022-11-28T18:16:37.335Z,103020.69
2022-11-28T18:19:05.555Z,103014.69
2022-11-28T18:21:33.524Z,103021.56
2022-11-28T18:24:04.718Z,103021.56
2022-11-28T18:26:32.577Z,103018.97
2022-11-28T18:29:00.477Z,103023.28
2022-11-28T18:31:30.713Z,103023.28
2022-11-28T18:34:02.296Z,103026.72
2022-11-28T18:36:31.801Z,103019.84
2022-11-28T18:39:01.312Z,103022.41
2022-11-28T18:41:30.059Z,103016.38
2022-11-28T18:43:58.515Z,103018.97
2022-11-28T18:46:27.161Z,103016.38
2022-11-28T18:48:56.701Z,103010.34
2022-11-28T18:51:26.708Z,103018.09
2022-11-28T18:53:56.294Z,103008.63
2022-11-28T18:56:25.000Z,103000.88
2022-11-28T18:58:54.467Z,103012.91
2022-11-28T19:01:25.133Z,103009.50
2022-11-28T19:03:54.840Z,103014.66
2022-11-28T19:06:24.450Z,103012.91
2022-11-28T19:08:54.767Z,103013.78
2022-11-28T19:11:23.173Z,103013.78
2022-11-28T19:13:53.361Z,103015.50
2022-11-28T19:16:21.959Z,103001.75
2022-11-28T19:18:50.369Z,103004.31
2022-11-28T19:21:20.547Z,103008.59
2022-11-28T19:23:49.561Z,103002.56
2022-11-28T19:26:19.186Z,103002.56
2022-11-28T19:28:47.454Z,103010.31
2022-11-28T19:31:17.021Z,103016.34
2022-11-28T19:33:45.334Z,103005.13
2022-11-28T19:36:14.813Z,103008.59
2022-11-28T19:38:43.544Z,103010.28
2022-11-28T19:41:14.715Z,103007.69
2022-11-28T19:43:42.965Z,103004.28
2022-11-28T19:46:12.152Z,103008.56
2022-11-28T19:48:41.502Z,103014.59
2022-11-28T19:51:10.821Z,103012.03
2022-11-28T19:53:40.779Z,103008.56
2022-11-28T19:56:12.766Z,103012.00
2022-11-28T19:58:42.465Z,103012.00
2022-11-28T20:01:12.339Z,103006.84
2022-11-28T20:03:41.656Z,103007.66
2022-11-28T20:06:10.929Z,103017.16
2022-11-28T20:08:39.930Z,103018.00
2022-11-28T20:11:09.876Z,103018.88
2022-11-28T20:13:37.821Z,103016.28
2022-11-28T20:16:08.892Z,103013.69
2022-11-28T20:18:38.059Z,103016.28
2022-11-28T20:21:08.364Z,103013.72
2022-11-28T20:23:42.006Z,103011.97
2022-11-28T20:26:10.665Z,103018.00
2022-11-28T20:28:39.931Z,103014.53
2022-11-28T20:31:19.329Z,103018.84
2022-11-28T20:33:47.333Z,103008.50
2022-11-28T20:36:16.950Z,103013.69
2022-11-28T20:38:45.206Z,103011.09
2022-11-28T20:41:15.207Z,103009.34
2022-11-28T20:43:43.632Z,103011.09
2022-11-28T20:46:15.172Z,103009.34
2022-11-28T20:48:43.542Z,103016.25
2022-11-28T20:51:13.285Z,103014.50
2022-11-28T20:53:42.051Z,103022.25
2022-11-28T20:56:12.601Z,103017.94
2022-11-28T20:58:40.481Z,103020.53
2022-11-28T21:01:08.707Z,103010.19
2022-11-28T21:03:38.010Z,103020.53
2022-11-28T21:06:06.027Z,103018.81
2022-11-28T21:08:33.861Z,103019.66
2022-11-28T21:11:06.122Z,103018.81
2022-11-28T21:13:34.202Z,103028.28
2022-11-28T21:16:06.749Z,103024.81
2022-11-28T21:18:34.682Z,103022.22
2022-11-28T21:21:08.226Z,103022.22
2022-11-28T21:23:36.813Z,103023.09
2022-11-28T21:26:06.501Z,103016.19
2022-11-28T21:28:36.456Z,103024.78
2022-11-28T21:31:07.276Z,103018.75
2022-11-28T21:33:35.482Z,103022.19
2022-11-28T21:36:06.380Z,103023.94
2022-11-28T21:38:35.230Z,103018.75
2022-11-28T21:41:03.337Z,103024.75
2022-11-28T21:43:31.426Z,103017.00
2022-11-28T21:46:02.651Z,103015.28
2022-11-28T21:48:31.293Z,103017.88
2022-11-28T21:50:59.923Z,103010.97
2022-11-28T21:53:29.894Z,103016.16
2022-11-28T21:56:00.324Z,103016.16
2022-11-28T21:58:29.005Z,103022.16
2022-11-28T22:00:57.685Z,103016.13
2022-11-28T22:03:25.725Z,103016.16
2022-11-28T22:05:53.847Z,103014.38
2022-11-28T22:08:22.066Z,103017.84
2022-11-28T22:10:51.277Z,103011.81
2022-11-28T22:13:19.125Z,103010.09
2022-11-28T22:15:46.959Z,103012.69
2022-11-28T22:18:14.800Z,103005.78
2022-11-28T22:20:45.736Z,103014.38
2022-11-28T22:23:15.765Z,103010.06
2022-11-28T22:25:53.024Z,103011.78
2022-11-28T22:28:21.060Z,103011.78
2022-11-28T22:30:48.881Z,103006.59
2022-11-28T22:33:16.729Z,103010.06
2022-11-28T22:35:45.577Z,103012.63
2022-11-28T22:38:13.497Z,103010.03
2022-11-28T22:40:41.344Z,103014.34
2022-11-28T22:43:10.882Z,103010.91
2022-11-28T22:45:38.779Z,103010.03
2022-11-28T22:48:07.290Z,103017.78
2022-11-28T22:50:39.970Z,103018.63
2022-11-28T22:53:08.025Z,103013.44
2022-11-28T22:55:36.427Z,103016.00
2022-11-28T22:58:04.331Z,103020.34
2022-11-28T23:00:33.538Z,103019.47
2022-11-28T23:03:01.502Z,103025.53
2022-11-28T23:05:29.421Z,103025.53
2022-11-28T23:07:57.274Z,103029.81
2022-11-28T23:10:25.784Z,103027.22
2022-11-28T23:12:53.936Z,103027.22
2022-11-28T23:15:21.741Z,103031.53
2022-11-28T23:17:51.113Z,103034.97
2022-11-28T23:20:19.244Z,103034.09
2022-11-28T23:22:47.077Z,103042.72
2022-11-28T23:25:15.395Z,103036.69
2022-11-28T23:27:43.193Z,103038.44
2022-11-28T23:30:11.795Z,103035.84
2022-11-28T23:32:39.667Z,103032.38
2022-11-28T23:35:09.885Z,103041.00
2022-11-28T23:37:38.274Z,103030.69
2022-11-28T23:40:07.542Z,103031.53
2022-11-28T23:42:35.652Z,103042.75
2022-11-28T23:45:03.494Z,103042.75
2022-11-28T23:47:31.318Z,103034.13
2022-11-28T23:49:59.156Z,103038.44
2022-11-28T23:52:28.346Z,103037.56
2022-11-28T23:54:56.162Z,103041.03
2022-11-28T23:57:23.970Z,103036.69
2022-11-28T23:59:52.044Z,103041.03
